Christian Reinauer — WDA6472 — position and weather

sailwx.info

Track history (hours):
 
Tides and Currents Weather Stations Pressure Air Temp Water Temp Dewpoint Dewpoint Depression Visibility Wind Speed Wind Dir Waves Ship Positions

Christian Reinauer

Owner: REINAUER TRANSPORTATION CO LLC, STATEN ISLAND, NY. More information available from US FCC via Universal Licensing System and Coast Guard Vessel Documentation Center.

Last reported at 2014-Dec-20 15:33 UTC. Time now 2014-Dec-22 20:33 UTC.
Position N 25°45' W 080°01'.

Length 170 m; draft 6.4 m.

Type: Ship (hazmat cat B). MMSI: 366832740.

Date/timePositionNaut miles runAvg speedWind from/ knotsBaromVisibWave heightAir tempDewpointWater temp
2014-Dec-20 15:33N 25°45' W 080°01'9 9.1
2014-Dec-20 14:33N 25°54' W 080°00'9 8.5
2014-Dec-20 13:33N 26°02' W 079°59'9 8.6
2014-Dec-20 12:33N 26°11' W 079°59'9 9.2
2014-Dec-20 11:34N 26°20' W 079°59'9 8.6
2014-Dec-20 10:34N 26°29' W 079°58'9 9.1
2014-Dec-20 09:34N 26°38' W 079°58'17 8.6
2014-Dec-20 07:34N 26°55' W 079°58'10 9.9
2014-Dec-20 06:33N 27°05' W 079°59'  
2014-Dec-17 18:21N 27°03' W 079°59'1113.3
2014-Dec-17 17:33N 26°52' W 079°58'1313.1
2014-Dec-17 16:33N 26°39' W 079°58'1313.0
2014-Dec-17 15:33N 26°26' W 079°58'1312.8
2014-Dec-17 14:33N 26°13' W 079°59'10 9.8
2014-Dec-17 13:33N 26°06' W 080°06'1 1.2
2014-Dec-17 12:29N 26°06' W 080°07'0 0.0
2014-Dec-17 11:29N 26°06' W 080°07'0 0.0
2014-Dec-17 10:28N 26°06' W 080°07'0 0.0
2014-Dec-17 09:31N 26°06' W 080°07'0 0.0
2014-Dec-17 08:31N 26°06' W 080°07'0 0.0
2014-Dec-17 07:31N 26°06' W 080°07'0 0.0
2014-Dec-17 06:31N 26°06' W 080°07'0 0.0
2014-Dec-17 05:31N 26°06' W 080°07'0 0.0
2014-Dec-17 04:31N 26°06' W 080°07'0 0.0
2014-Dec-17 03:31N 26°06' W 080°07'0 0.0
2014-Dec-17 02:31N 26°06' W 080°07'0 0.0
2014-Dec-17 01:31N 26°06' W 080°07'0 0.0
2014-Dec-17 00:31N 26°06' W 080°07'0 0.0
2014-Dec-16 23:31N 26°06' W 080°07'0 0.0
2014-Dec-16 22:22N 26°06' W 080°07'0 0.0
2014-Dec-16 21:19N 26°06' W 080°07'0 0.0
2014-Dec-16 20:22N 26°06' W 080°07'0 0.1
2014-Dec-16 19:33N 26°06' W 080°07'3 2.9
2014-Dec-16 18:33N 26°06' W 080°04'0 0.1
2014-Dec-16 17:33N 26°06' W 080°04'1 1.1
2014-Dec-16 16:33N 26°07' W 080°05'0 0.0
2014-Dec-16 15:24N 26°07' W 080°05'0 0.0
2014-Dec-16 14:33N 26°07' W 080°05'0 0.0
2014-Dec-16 13:33N 26°07' W 080°05'0 0.1
2014-Dec-16 12:33N 26°08' W 080°05'8 8.4
2014-Dec-16 11:33N 25°59' W 080°02'1312.9
2014-Dec-16 10:33N 25°46' W 080°01'1413.9
2014-Dec-16 09:33N 25°33' W 080°02'  
2014-Dec-13 20:31N 29°55' W 089°58'9 8.3
2014-Dec-13 19:28N 29°57' W 090°08'7 0.2
2014-Dec-12 13:29N 29°58' W 090°17'8 6.9
2014-Dec-12 12:23N 29°56' W 090°08'5 6.1
2014-Dec-12 11:33N 29°57' W 090°03'1 0.3
2014-Dec-12 07:26N 29°57' W 090°02'0 0.0
2014-Dec-12 06:29N 29°57' W 090°02'0 0.0
2014-Dec-12 05:29N 29°57' W 090°02'0 0.0
2014-Dec-11 23:11N 29°57' W 090°02'0 0.0
2014-Dec-11 22:26N 29°57' W 090°02'0 0.0
2014-Dec-11 16:17N 29°57' W 090°02'0 0.0
2014-Dec-11 15:08N 29°57' W 090°02'0 0.0
2014-Dec-11 01:25N 29°57' W 090°02'0 0.0
2014-Dec-10 18:07N 29°57' W 090°02'0 0.0
2014-Dec-10 17:19N 29°57' W 090°02'0 0.0
2014-Dec-10 16:19N 29°57' W 090°02'  
Track history (hours):
 
Tides and Currents Weather Stations Pressure Air Temp Water Temp Dewpoint Dewpoint Depression Visibility Wind Speed Wind Dir Waves Ship Positions

Christian Reinauer

Owner: REINAUER TRANSPORTATION CO LLC, STATEN ISLAND, NY. More information available from US FCC via Universal Licensing System and Coast Guard Vessel Documentation Center.

Last reported at 2014-Dec-20 15:33 UTC. Time now 2014-Dec-22 20:33 UTC.
Position N 25°45' W 080°01'.

Length 170 m; draft 6.4 m.

Type: Ship (hazmat cat B). MMSI: 366832740.

Date/timePositionNaut miles runAvg speedWind from/ knotsBaromVisibWave heightAir tempDewpointWater temp
2014-Dec-20 15:33N 25°45' W 080°01'9 9.1
2014-Dec-20 14:33N 25°54' W 080°00'9 8.5
2014-Dec-20 13:33N 26°02' W 079°59'9 8.6
2014-Dec-20 12:33N 26°11' W 079°59'9 9.2
2014-Dec-20 11:34N 26°20' W 079°59'9 8.6
2014-Dec-20 10:34N 26°29' W 079°58'9 9.1
2014-Dec-20 09:34N 26°38' W 079°58'17 8.6
2014-Dec-20 07:34N 26°55' W 079°58'10 9.9
2014-Dec-20 06:33N 27°05' W 079°59'  
2014-Dec-17 18:21N 27°03' W 079°59'1113.3
2014-Dec-17 17:33N 26°52' W 079°58'1313.1
2014-Dec-17 16:33N 26°39' W 079°58'1313.0
2014-Dec-17 15:33N 26°26' W 079°58'1312.8
2014-Dec-17 14:33N 26°13' W 079°59'10 9.8
2014-Dec-17 13:33N 26°06' W 080°06'1 1.2
2014-Dec-17 12:29N 26°06' W 080°07'0 0.0
2014-Dec-17 11:29N 26°06' W 080°07'0 0.0
2014-Dec-17 10:28N 26°06' W 080°07'0 0.0
2014-Dec-17 09:31N 26°06' W 080°07'0 0.0
2014-Dec-17 08:31N 26°06' W 080°07'0 0.0
2014-Dec-17 07:31N 26°06' W 080°07'0 0.0
2014-Dec-17 06:31N 26°06' W 080°07'0 0.0
2014-Dec-17 05:31N 26°06' W 080°07'0 0.0
2014-Dec-17 04:31N 26°06' W 080°07'0 0.0
2014-Dec-17 03:31N 26°06' W 080°07'0 0.0
2014-Dec-17 02:31N 26°06' W 080°07'0 0.0
2014-Dec-17 01:31N 26°06' W 080°07'0 0.0
2014-Dec-17 00:31N 26°06' W 080°07'0 0.0
2014-Dec-16 23:31N 26°06' W 080°07'0 0.0
2014-Dec-16 22:22N 26°06' W 080°07'0 0.0
2014-Dec-16 21:19N 26°06' W 080°07'0 0.0
2014-Dec-16 20:22N 26°06' W 080°07'0 0.1
2014-Dec-16 19:33N 26°06' W 080°07'3 2.9
2014-Dec-16 18:33N 26°06' W 080°04'0 0.1
2014-Dec-16 17:33N 26°06' W 080°04'1 1.1
2014-Dec-16 16:33N 26°07' W 080°05'0 0.0
2014-Dec-16 15:24N 26°07' W 080°05'0 0.0
2014-Dec-16 14:33N 26°07' W 080°05'0 0.0
2014-Dec-16 13:33N 26°07' W 080°05'0 0.1
2014-Dec-16 12:33N 26°08' W 080°05'8 8.4
2014-Dec-16 11:33N 25°59' W 080°02'1312.9
2014-Dec-16 10:33N 25°46' W 080°01'1413.9
2014-Dec-16 09:33N 25°33' W 080°02'  
2014-Dec-13 20:31N 29°55' W 089°58'9 8.3
2014-Dec-13 19:28N 29°57' W 090°08'7 0.2
2014-Dec-12 13:29N 29°58' W 090°17'8 6.9
2014-Dec-12 12:23N 29°56' W 090°08'5 6.1
2014-Dec-12 11:33N 29°57' W 090°03'1 0.3
2014-Dec-12 07:26N 29°57' W 090°02'0 0.0
2014-Dec-12 06:29N 29°57' W 090°02'0 0.0
2014-Dec-12 05:29N 29°57' W 090°02'0 0.0
2014-Dec-11 23:11N 29°57' W 090°02'0 0.0
2014-Dec-11 22:26N 29°57' W 090°02'0 0.0
2014-Dec-11 16:17N 29°57' W 090°02'0 0.0
2014-Dec-11 15:08N 29°57' W 090°02'0 0.0
2014-Dec-11 01:25N 29°57' W 090°02'0 0.0
2014-Dec-10 18:07N 29°57' W 090°02'0 0.0
2014-Dec-10 17:19N 29°57' W 090°02'0 0.0
2014-Dec-10 16:19N 29°57' W 090°02'  

Dump ship's entire track history